This is the latest recevied weather packets stored in our database for station/object F5INV-13. If no packets are shown the sender has not sent any weather packets the latest 1 day(s).
| Time | Temp. | Humidity | Pressure | Rain* | Wind** | Luminosity | Snow |
|---|---|---|---|---|---|---|---|
| 1778078705 | 19.44° C | 54% | 1006.4 hPa | 0 mm | - | - | - |
| 1778078405 | 18.89° C | 57% | 1006.4 hPa | 0 mm | - | - | - |
| 1778077805 | 18.89° C | 58% | 1006.4 hPa | 0 mm | - | - | - |
| 1778073005 | 17.78° C | 61% | 1007.4 hPa | 0 mm | - | - | - |
| 1778072405 | 17.78° C | 61% | 1007.4 hPa | 0 mm | - | - | - |
| 1778071205 | 17.78° C | 61% | 1006.4 hPa | 0 mm | - | - | - |
| 1778068505 | 17.78° C | 58% | 1007.4 hPa | 0 mm | - | - | - |
| 1778067305 | 17.22° C | 59% | 1007.4 hPa | 0 mm | - | - | - |
| 1778067005 | 17.78° C | 57% | 1007.4 hPa | 0 mm | - | - | - |
| 1778065805 | 15.56° C | 66% | 1008.4 hPa | 0 mm | - | - | - |
| 1778065205 | 15.56° C | 66% | 1008.4 hPa | 0 mm | - | - | - |
| 1778064905 | 15.56° C | 66% | 1008.4 hPa | 0 mm | - | - | - |
| 1778064305 | 15.56° C | 66% | 1008.4 hPa | 0 mm | - | - | - |
| 1778062805 | 17.22° C | 63% | 1008.4 hPa | 0 mm | - | - | - |
| 1778062205 | 17.22° C | 63% | 1008.4 hPa | 0 mm | - | - | - |
| 1778061605 | 16.11° C | 67% | 1008.4 hPa | 0 mm | - | - | - |
| 1778061305 | 16.11° C | 67% | 1008.4 hPa | 0 mm | - | - | - |
| 1778060705 | 16.11° C | 67% | 1008.4 hPa | 0 mm | - | - | - |
| 1778060405 | 16.11° C | 67% | 1008.4 hPa | 0 mm | - | - | - |
| 1778060105 | 16.11° C | 67% | 1008.4 hPa | 0 mm | - | - | - |
| 1778059205 | 16.11° C | 67% | 1008.4 hPa | 0 mm | - | - | - |
| 1778058904 | 14.44° C | 73% | 1008.4 hPa | 0 mm | - | - | - |
| 1778058005 | 14.44° C | 73% | 1008.4 hPa | 0 mm | - | - | - |
| 1778057705 | 14.44° C | 73% | 1008.4 hPa | 0 mm | - | - | - |
| 1778057105 | 14.44° C | 73% | 1008.4 hPa | 0 mm | - | - | - |
* Rain latest hour (hover to see other rain measurements)
** Current wind speed in m/s (hover to see current wind gust speed)